Time;durP1;ratioP1;P1;durP2;ratioP2;P2;SDS_P1;SDS_P2;PMS_P1;PMS_P2;Temp;Humidity;BMP_temperature;BMP_pressure;BME280_temperature;BME280_humidity;BME280_pressure;Samples;Min_cycle;Max_cycle;Signal;HPM_P1;HPM_P2
2023/01/24 00:00:23;;;;;;;;;;;;;;;25.33;36.60;96085.13;4975454;28;1427;-72
2023/01/24 00:02:48;;;;;;;;;;;;;;;25.33;36.59;96083.28;4971613;28;1626;-72
2023/01/24 00:05:13;;;;;;;;;;;;;;;25.34;36.81;96086.78;4961627;28;1954;-72
2023/01/24 00:07:39;;;;;;;;;;;;;;;25.31;36.79;96082.66;4953251;28;1601;-72
2023/01/24 00:10:05;;;;;;;;;;;;;;;25.33;36.85;96090.50;4980433;28;1469;-72
2023/01/24 00:12:30;;;;;;;;;;;;;;;25.32;36.79;96084.31;4967904;28;1422;-74
2023/01/24 00:14:57;;;;;;;;;;;;;;;25.33;36.88;96085.97;4986348;28;1655;-73
2023/01/24 00:17:24;;;;;;;;;;;;;;;25.32;37.19;96084.31;4974626;28;1372;-74
2023/01/24 00:19:49;;;;;;;;;;;;;;;25.32;36.95;96081.63;4954105;28;1435;-75
2023/01/24 00:22:14;;;;;;;;;;;;;;;25.34;37.07;96087.63;4971894;28;1398;-75
2023/01/24 00:24:39;;;;;;;;;;;;;;;25.32;37.10;96089.66;4967621;28;1898;-75
2023/01/24 00:27:05;;;;;;;;;;;;;;;25.33;37.24;96101.25;4974692;28;1507;-75
2023/01/24 00:29:30;;;;;;;;;;;;;;;25.32;37.33;96100.41;4961248;28;1410;-75
2023/01/24 00:31:55;;;;;;;;;;;;;;;25.31;36.99;96097.97;4970358;28;1435;-72
2023/01/24 00:34:21;;;;;;;;;;;;;;;25.33;37.15;96098.56;4965534;28;1546;-72
2023/01/24 00:36:46;;;;;;;;;;;;;;;25.31;37.22;96098.78;4956804;28;1654;-73
2023/01/24 00:39:11;;;;;;;;;;;;;;;25.32;36.96;96095.03;4964631;28;1563;-73
2023/01/24 00:41:36;;;;;;;;;;;;;;;25.32;37.27;96094.22;4960863;28;1467;-73
2023/01/24 00:44:02;;;;;;;;;;;;;;;25.31;37.15;96093.41;4973738;28;1318;-73
2023/01/24 00:46:27;;;;;;;;;;;;;;;25.27;37.04;96092.19;4974924;28;1910;-73
2023/01/24 00:48:52;;;;;;;;;;;;;;;25.31;36.97;96092.59;4957957;28;1270;-73
2023/01/24 00:51:18;;;;;;;;;;;;;;;25.33;37.03;96095.88;4972637;28;1519;-73
2023/01/24 00:53:43;;;;;;;;;;;;;;;25.31;37.10;96098.78;4953550;28;1516;-72
2023/01/24 00:56:08;;;;;;;;;;;;;;;25.29;37.19;96100.84;4959031;28;1547;-72
2023/01/24 00:58:33;;;;;;;;;;;;;;;25.30;36.96;96107.03;4970764;28;1536;-72
2023/01/24 01:01:02;;;;;;;;;;;;;;;25.30;37.37;96102.50;4974930;28;1716;-75
2023/01/24 01:03:28;;;;;;;;;;;;;;;25.29;37.36;96098.16;4983838;28;1562;-76
2023/01/24 01:05:57;;;;;;;;;;;;;;;25.32;37.16;96095.03;4970404;28;1894;-75
2023/01/24 01:08:22;;;;;;;;;;;;;;;25.34;37.21;96108.28;4985553;28;1471;-74
2023/01/24 01:10:47;;;;;;;;;;;;;;;25.32;37.19;96105.78;4983982;28;1477;-75
2023/01/24 01:13:13;;;;;;;;;;;;;;;25.34;37.35;96100.22;4960857;28;1569;-73
2023/01/24 01:15:38;;;;;;;;;;;;;;;25.33;37.51;96096.72;4963782;28;1549;-72
2023/01/24 01:18:03;;;;;;;;;;;;;;;25.31;37.44;96106.84;4973629;28;1636;-73
2023/01/24 01:20:28;;;;;;;;;;;;;;;25.32;37.37;96107.66;4978249;28;1547;-73
2023/01/24 01:22:54;;;;;;;;;;;;;;;25.32;37.33;96103.09;4977918;28;1503;-73
2023/01/24 01:25:19;;;;;;;;;;;;;;;25.31;37.59;96109.53;4957968;28;1906;-73
2023/01/24 01:27:44;;;;;;;;;;;;;;;25.32;37.48;96105.78;4945109;28;1656;-73
2023/01/24 01:30:10;;;;;;;;;;;;;;;25.32;37.39;96103.09;4962839;28;1484;-73
2023/01/24 01:32:35;;;;;;;;;;;;;;;25.33;37.41;96103.94;4964758;28;1381;-73
2023/01/24 01:35:00;;;;;;;;;;;;;;;25.32;37.69;96099.59;4971955;28;1513;-73
2023/01/24 01:37:26;;;;;;;;;;;;;;;25.34;37.65;96101.03;4951476;28;1001;-73
2023/01/24 01:39:51;;;;;;;;;;;;;;;25.31;37.64;96096.09;4952495;28;1586;-73
2023/01/24 01:42:16;;;;;;;;;;;;;;;25.32;37.68;96102.28;4970803;28;1645;-73
2023/01/24 01:44:43;;;;;;;;;;;;;;;25.32;37.91;96105.78;4964017;28;1914;-73
2023/01/24 01:47:08;;;;;;;;;;;;;;;25.31;37.90;96096.09;4983242;28;1504;-73
2023/01/24 01:49:33;;;;;;;;;;;;;;;25.32;37.94;96092.38;4956320;28;1370;-73
2023/01/24 01:52:02;;;;;;;;;;;;;;;25.32;38.11;96100.41;4957578;28;1295;-73
2023/01/24 01:54:29;;;;;;;;;;;;;;;25.32;37.81;96097.72;4968793;28;1375;-76
2023/01/24 01:56:58;;;;;;;;;;;;;;;25.30;38.21;96099.81;4974396;28;1347;-75
2023/01/24 01:59:26;;;;;;;;;;;;;;;25.31;38.10;96098.78;4974360;28;1595;-75
2023/01/24 02:01:53;;;;;;;;;;;;;;;25.32;38.21;96095.03;4964918;28;1480;-75
2023/01/24 02:04:38;;;;;;;;;;;;;;;25.30;38.12;96099.81;4974421;28;1954;-76
2023/01/24 02:07:13;;;;;;;;;;;;;;;25.31;38.98;96098.78;4954913;28;1527;-75
2023/01/24 02:09:42;;;;;;;;;;;;;;;25.30;38.42;96098.97;4965935;28;1426;-75
2023/01/24 02:12:10;;;;;;;;;;;;;;;25.33;38.07;96096.72;4947249;28;1602;-75
2023/01/24 02:17:20;;;;;;;;;;;;;;;25.33;38.31;96085.97;4964754;28;1335;-72
2023/01/24 02:20:11;;;;;;;;;;;;;;;25.32;38.04;96088.84;4975583;28;1554;-72
2023/01/24 02:22:36;;;;;;;;;;;;;;;25.31;38.08;96088.03;4960688;28;1246;-74
2023/01/24 02:25:08;;;;;;;;;;;;;;;25.31;38.23;96088.03;4962922;28;1902;-74
2023/01/24 02:27:33;;;;;;;;;;;;;;;25.32;38.21;96087.00;4954197;28;1377;-75
2023/01/24 02:29:59;;;;;;;;;;;;;;;25.32;38.18;96092.38;4972539;28;1417;-74
2023/01/24 02:32:24;;;;;;;;;;;;;;;25.30;38.18;96094.44;4966848;28;1588;-73
2023/01/24 02:34:50;;;;;;;;;;;;;;;25.33;38.55;96094.03;4956040;28;1565;-76
2023/01/24 02:37:15;;;;;;;;;;;;;;;25.34;38.32;96093.00;4987114;28;1446;-76
2023/01/24 02:39:52;;;;;;;;;;;;;;;25.37;38.28;96097.13;4966586;28;1609;-76
2023/01/24 02:42:20;;;;;;;;;;;;;;;25.35;38.25;96100.00;4964907;28;1372;-76
2023/01/24 02:44:46;;;;;;;;;;;;;;;25.32;38.20;96095.03;4972811;28;1967;-74
2023/01/24 02:47:11;;;;;;;;;;;;;;;25.31;38.38;96093.41;4947363;28;1526;-74
2023/01/24 02:49:36;;;;;;;;;;;;;;;25.32;38.25;96088.84;4969714;28;1495;-74
2023/01/24 02:54:46;;;;;;;;;;;;;;;25.33;38.40;96095.88;4973505;28;1509;-77
2023/01/24 02:59:54;;;;;;;;;;;;;;;25.34;38.40;96086.78;4994525;28;1204;-76
2023/01/24 03:02:20;;;;;;;;;;;;;;;25.33;38.22;96085.97;4969299;28;1303;-76
2023/01/24 03:04:45;;;;;;;;;;;;;;;25.34;38.20;96089.47;4968331;28;1907;-76
2023/01/24 03:07:10;;;;;;;;;;;;;;;25.34;38.52;96084.94;4978161;28;1442;-76
2023/01/24 03:09:38;;;;;;;;;;;;;;;25.37;38.37;96088.25;4964536;28;1429;-76
2023/01/24 03:36:39;;;;;;;;;;;;;;;25.34;38.45;96076.88;4973662;28;1530;-76
2023/01/24 03:41:48;;;;;;;;;;;;;;;25.35;38.47;96078.50;4965768;28;1187;-76
2023/01/24 03:44:13;;;;;;;;;;;;;;;25.37;38.38;96077.50;4962022;28;1911;-76
2023/01/24 03:46:39;;;;;;;;;;;;;;;25.36;38.32;96073.97;4973377;28;1523;-77
2023/01/24 03:49:08;;;;;;;;;;;;;;;25.38;38.22;96076.44;4974642;28;1529;-76
2023/01/24 03:54:17;;;;;;;;;;;;;;;25.37;38.39;96075.63;4958976;28;1388;-72
2023/01/24 03:56:42;;;;;;;;;;;;;;;25.36;38.48;96073.97;4970499;28;1226;-73
2023/01/24 03:59:07;;;;;;;;;;;;;;;25.33;38.38;96075.22;4957149;28;1483;-73
2023/01/24 04:01:33;;;;;;;;;;;;;;;25.34;38.33;96071.50;4955313;28;1614;-73
2023/01/24 04:03:58;;;;;;;;;;;;;;;25.37;38.45;96064.06;4962194;28;1587;-77
2023/01/24 04:06:23;;;;;;;;;;;;;;;25.41;38.27;96070.66;4962813;28;1906;-74
2023/01/24 04:08:49;;;;;;;;;;;;;;;25.44;37.94;96064.84;4972097;28;1390;-76
2023/01/24 04:11:14;;;;;;;;;;;;;;;25.44;38.19;96078.28;4980805;28;1349;-75
2023/01/24 04:13:39;;;;;;;;;;;;;;;25.45;38.17;96074.59;4978540;28;1637;-74
2023/01/24 04:16:06;;;;;;;;;;;;;;;24.75;31.10;96068.84;4966684;28;1592;-72
2023/01/24 04:18:31;;;;;;;;;;;;;;;23.63;30.86;96070.16;4946266;28;1231;-72
2023/01/24 04:21:00;;;;;;;;;;;;;;;22.93;30.52;96071.94;4970380;28;1552;-72
2023/01/24 04:23:25;;;;;;;;;;;;;;;22.43;30.54;96083.47;4973802;28;1446;-72
2023/01/24 04:25:56;;;;;;;;;;;;;;;22.07;30.58;96080.78;4973115;28;1902;-72
2023/01/24 04:28:22;;;;;;;;;;;;;;;21.78;30.42;96074.50;4961177;28;1334;-72
2023/01/24 04:30:47;;;;;;;;;;;;;;;21.63;30.34;96073.69;4971707;28;1649;-73
2023/01/24 04:33:12;;;;;;;;;;;;;;;21.41;29.87;96066.63;4956001;28;1445;-72
2023/01/24 04:35:38;;;;;;;;;;;;;;;21.28;29.73;96062.72;4975143;28;1332;-72
2023/01/24 04:38:03;;;;;;;;;;;;;;;21.14;29.75;96066.19;4986666;28;1616;-72
2023/01/24 04:40:28;;;;;;;;;;;;;;;21.05;29.58;96075.31;4964970;28;1379;-72
2023/01/24 04:42:57;;;;;;;;;;;;;;;20.91;29.24;96074.28;4973682;28;1264;-72
2023/01/24 04:45:23;;;;;;;;;;;;;;;20.79;29.20;96073.06;4973869;28;1970;-72
2023/01/24 04:47:48;;;;;;;;;;;;;;;20.68;29.02;96066.31;4962944;28;1468;-72
2023/01/24 04:50:13;;;;;;;;;;;;;;;20.56;29.02;96065.09;4955344;28;1440;-72
2023/01/24 04:52:39;;;;;;;;;;;;;;;20.26;29.89;96078.28;4960396;28;1297;-74
2023/01/24 04:55:04;;;;;;;;;;;;;;;20.82;30.57;96075.38;4967349;28;1614;-72
2023/01/24 04:57:30;;;;;;;;;;;;;;;21.11;28.90;96079.91;4971113;28;1613;-72
2023/01/24 04:59:55;;;;;;;;;;;;;;;21.14;30.17;96071.53;4973160;28;1635;-73
2023/01/24 05:02:20;;;;;;;;;;;;;;;21.40;30.73;96031.06;4971617;28;1560;-72
2023/01/24 05:04:45;;;;;;;;;;;;;;;22.19;30.51;96081.97;4962216;28;1891;-72
2023/01/24 05:07:11;;;;;;;;;;;;;;;22.53;30.64;96084.97;4981143;28;10447;-72
2023/01/24 05:09:36;;;;;;;;;;;;;;;22.81;30.07;96079.66;4993882;28;1393;-70
2023/01/24 05:12:01;;;;;;;;;;;;;;;21.93;29.40;96087.00;4986445;28;1436;-71
2023/01/24 05:14:27;;;;;;;;;;;;;;;21.87;30.68;96082.41;5000564;28;1563;-70
2023/01/24 05:16:52;;;;;;;;;;;;;;;22.30;31.07;96082.50;4980169;28;1605;-71
2023/01/24 05:19:17;;;;;;;;;;;;;;;22.66;31.35;96093.94;5008819;28;1405;-71
2023/01/24 05:21:42;;;;;;;;;;;;;;;22.86;31.27;96093.31;4992773;28;1548;-71
2023/01/24 05:24:08;;;;;;;;;;;;;;;23.00;31.31;96097.78;4993688;28;1260;-73
2023/01/24 05:26:33;;;;;;;;;;;;;;;23.11;31.18;96101.78;4985037;28;1910;-73
2023/01/24 05:28:58;;;;;;;;;;;;;;;23.19;31.24;96108.81;4993101;28;1189;-72
2023/01/24 05:31:23;;;;;;;;;;;;;;;23.25;31.05;96116.06;4993832;28;1321;-71
2023/01/24 05:33:49;;;;;;;;;;;;;;;23.30;31.24;96127.84;5025650;28;1199;-73
2023/01/24 05:36:15;;;;;;;;;;;;;;;23.34;31.25;96120.25;4989407;28;1057;-72
2023/01/24 05:38:41;;;;;;;;;;;;;;;23.37;31.20;96125.22;4989480;28;1165;-72
2023/01/24 05:41:07;;;;;;;;;;;;;;;23.41;31.38;96118.44;4994178;28;869;-73
2023/01/24 05:43:33;;;;;;;;;;;;;;;23.44;31.46;96119.91;4993545;28;857;-73
2023/01/24 05:45:59;;;;;;;;;;;;;;;23.48;31.44;96126.50;5025514;28;1969;-71
2023/01/24 05:48:25;;;;;;;;;;;;;;;23.49;31.50;96126.31;4984251;28;1061;-71
2023/01/24 05:50:55;;;;;;;;;;;;;;;23.51;31.37;96129.63;4994293;28;778;-70
2023/01/24 05:53:20;;;;;;;;;;;;;;;23.55;31.61;96136.25;4993698;28;912;-71
2023/01/24 05:55:45;;;;;;;;;;;;;;;23.58;31.61;96141.19;4993772;28;857;-72
2023/01/24 05:58:10;;;;;;;;;;;;;;;23.60;31.59;96132.16;4993868;28;779;-72
2023/01/24 06:00:36;;;;;;;;;;;;;;;23.63;31.67;96137.13;4999314;28;1221;-72
2023/01/24 06:03:02;;;;;;;;;;;;;;;23.65;31.55;96145.75;4993752;28;915;-72
2023/01/24 06:05:27;;;;;;;;;;;;;;;23.67;31.70;96149.09;5025181;28;1961;-72
2023/01/24 06:07:53;;;;;;;;;;;;;;;23.68;31.71;96151.59;5008736;28;1180;-72
2023/01/24 06:10:18;;;;;;;;;;;;;;;23.70;31.55;96154.91;4988802;28;992;-72
2023/01/24 06:12:43;;;;;;;;;;;;;;;23.71;31.57;96156.56;4988965;28;1060;-72
2023/01/24 06:15:08;;;;;;;;;;;;;;;23.73;31.55;96165.22;4993656;28;900;-72
2023/01/24 06:17:34;;;;;;;;;;;;;;;23.74;31.74;96158.84;4993578;28;953;-73
2023/01/24 06:19:59;;;;;;;;;;;;;;;23.75;31.78;96163.19;4993904;28;872;-71
2023/01/24 06:22:31;;;;;;;;;;;;;;;23.77;31.54;96154.97;4984251;28;1111;-72
2023/01/24 06:24:57;;;;;;;;;;;;;;;23.78;31.60;96165.47;4993691;28;1898;-73
2023/01/24 06:27:22;;;;;;;;;;;;;;;23.78;31.77;96170.81;5025011;28;1184;-73
2023/01/24 06:29:48;;;;;;;;;;;;;;;23.79;31.81;96171.66;4993698;28;927;-73
2023/01/24 06:32:13;;;;;;;;;;;;;;;23.82;31.46;96170.44;4993347;28;1444;-73
2023/01/24 06:34:49;;;;;;;;;;;;;;;23.83;31.59;96180.97;4984287;28;1115;-73
2023/01/24 06:37:21;;;;;;;;;;;;;;;23.83;31.77;96175.59;5008574;28;1179;-72
2023/01/24 06:39:51;;;;;;;;;;;;;;;23.85;31.78;96184.28;4993485;28;923;-72
2023/01/24 06:42:17;;;;;;;;;;;;;;;23.88;31.48;96185.72;5024725;28;1302;-73
2023/01/24 06:44:42;;;;;;;;;;;;;;;23.88;31.90;96186.56;5015331;28;1918;-72
2023/01/24 06:47:10;;;;;;;;;;;;;;;23.90;31.54;96187.16;5024585;28;1208;-72
2023/01/24 06:49:35;;;;;;;;;;;;;;;23.90;31.65;96187.16;4993439;28;876;-73
2023/01/24 06:52:01;;;;;;;;;;;;;;;23.92;31.57;96187.81;5008426;28;1203;-71
2023/01/24 06:54:26;;;;;;;;;;;;;;;23.92;31.67;96187.81;4995836;28;825;-72
2023/01/24 06:56:51;;;;;;;;;;;;;;;23.93;31.88;96194.00;4987814;28;1194;-72
2023/01/24 06:59:16;;;;;;;;;;;;;;;23.94;31.66;96196.47;5012089;28;1398;-72
2023/01/24 07:01:41;;;;;;;;;;;;;;;23.93;31.77;96200.16;4997178;28;964;-72
2023/01/24 07:04:07;;;;;;;;;;;;;;;23.94;31.86;96199.16;5028357;28;1424;-72
2023/01/24 07:06:32;;;;;;;;;;;;;;;23.90;31.88;96189.03;4996458;28;1894;-72
2023/01/24 07:08:57;;;;;;;;;;;;;;;23.96;31.78;96196.28;4988204;28;1141;-72
2023/01/24 07:11:23;;;;;;;;;;;;;;;23.97;31.86;96204.13;5028465;28;1189;-73
2023/01/24 07:13:49;;;;;;;;;;;;;;;23.97;31.64;96201.44;5028415;28;1220;-72
2023/01/24 07:16:14;;;;;;;;;;;;;;;23.98;31.70;96205.78;4996733;28;817;-72
2023/01/24 07:18:39;;;;;;;;;;;;;;;23.98;31.82;96211.13;4989378;28;1083;-71
2023/01/24 07:21:08;;;;;;;;;;;;;;;23.98;31.70;96210.31;4994829;28;1061;-72
2023/01/24 07:23:34;;;;;;;;;;;;;;;23.99;31.72;96215.50;5028270;28;1311;-72
2023/01/24 07:26:00;;;;;;;;;;;;;;;23.99;31.79;96212.81;5028171;28;1898;-72
2023/01/24 07:28:25;;;;;;;;;;;;;;;23.99;31.88;96212.81;4997057;28;938;-72
2023/01/24 07:30:53;;;;;;;;;;;;;;;24.00;31.94;96219.81;4986854;28;1330;-72
2023/01/24 07:33:18;;;;;;;;;;;;;;;23.99;31.83;96217.31;4996519;28;924;-72
2023/01/24 07:35:43;;;;;;;;;;;;;;;24.00;31.70;96219.81;4996366;28;868;-72
2023/01/24 07:38:09;;;;;;;;;;;;;;;24.00;32.06;96216.31;4996586;28;799;-73
2023/01/24 07:40:35;;;;;;;;;;;;;;;24.01;31.69;96223.31;4996522;28;803;-73
2023/01/24 07:43:01;;;;;;;;;;;;;;;24.02;31.94;96227.63;4986601;28;1058;-72
2023/01/24 07:45:27;;;;;;;;;;;;;;;24.02;31.72;96222.28;4996135;28;1973;-72
2023/01/24 07:47:56;;;;;;;;;;;;;;;24.01;31.74;96232.19;4996187;28;818;-72
2023/01/24 07:50:22;;;;;;;;;;;;;;;24.04;31.67;96235.50;5011164;28;1316;-73
2023/01/24 07:52:50;;;;;;;;;;;;;;;24.02;31.83;96233.84;4988003;28;1172;-71
2023/01/24 07:55:15;;;;;;;;;;;;;;;24.04;31.97;96240.88;4995796;28;966;-72
2023/01/24 07:57:40;;;;;;;;;;;;;;;24.04;31.89;96235.50;4996057;28;861;-72
2023/01/24 08:00:06;;;;;;;;;;;;;;;24.04;31.65;96247.06;4995824;28;946;-72
2023/01/24 08:02:31;;;;;;;;;;;;;;;24.03;31.90;96253.44;4996340;28;793;-72
2023/01/24 08:04:56;;;;;;;;;;;;;;;24.03;31.82;96253.44;4985278;28;1966;-72
2023/01/24 08:07:22;;;;;;;;;;;;;;;24.04;31.82;96243.53;5010910;28;1187;-72
2023/01/24 08:09:48;;;;;;;;;;;;;;;24.02;31.74;96249.94;4995694;28;976;-73
2023/01/24 08:12:13;;;;;;;;;;;;;;;24.04;31.88;96252.41;4995762;28;809;-72
2023/01/24 08:14:39;;;;;;;;;;;;;;;24.04;32.08;96251.59;5027259;28;1290;-72
2023/01/24 08:17:04;;;;;;;;;;;;;;;24.05;31.95;96253.22;4986213;28;1083;-73
2023/01/24 08:19:31;;;;;;;;;;;;;;;24.06;31.75;96252.22;4996115;28;801;-73
2023/01/24 08:21:56;;;;;;;;;;;;;;;24.05;31.77;96256.75;4996023;28;801;-73
2023/01/24 08:24:21;;;;;;;;;;;;;;;24.06;31.89;96254.91;4995574;28;1902;-73
2023/01/24 08:26:48;;;;;;;;;;;;;;;24.06;31.80;96249.53;4986847;28;972;-72
2023/01/24 08:29:14;;;;;;;;;;;;;;;24.06;31.90;96257.59;5026846;28;1323;-73
2023/01/24 08:31:39;;;;;;;;;;;;;;;24.05;31.96;96253.22;4995513;28;1316;-73
2023/01/24 08:34:04;;;;;;;;;;;;;;;24.05;31.77;96258.59;4995323;28;869;-73
2023/01/24 08:36:30;;;;;;;;;;;;;;;24.06;31.83;96254.91;4995362;28;975;-73
2023/01/24 08:38:55;;;;;;;;;;;;;;;24.07;31.76;96256.56;4985820;28;1154;-73
2023/01/24 08:41:20;;;;;;;;;;;;;;;24.06;31.77;96260.28;4995255;28;810;-73
2023/01/24 08:43:45;;;;;;;;;;;;;;;24.06;31.76;96257.59;5010250;28;1198;-73
2023/01/24 08:46:10;;;;;;;;;;;;;;;24.07;31.92;96261.91;4995240;28;1973;-73
2023/01/24 08:48:36;;;;;;;;;;;;;;;24.06;31.69;96263.78;5010074;28;1195;-73
2023/01/24 08:51:04;;;;;;;;;;;;;;;24.08;32.05;96258.19;4986012;28;1083;-72
2023/01/24 08:53:30;;;;;;;;;;;;;;;24.06;31.67;96261.09;5026445;28;1350;-72
2023/01/24 08:55:55;;;;;;;;;;;;;;;24.07;31.87;96261.91;5026380;28;1181;-72
2023/01/24 08:58:21;;;;;;;;;;;;;;;24.08;31.92;96263.56;4994824;28;908;-73
2023/01/24 09:00:46;;;;;;;;;;;;;;;24.08;31.71;96259.06;4990332;28;1083;-73
2023/01/24 09:03:14;;;;;;;;;;;;;;;24.08;31.57;96258.19;4990046;28;1021;-73
2023/01/24 09:05:39;;;;;;;;;;;;;;;24.07;31.87;96257.38;5026345;28;1898;-73
2023/01/24 09:08:05;;;;;;;;;;;;;;;24.07;31.84;96253.88;4994805;28;888;-74
2023/01/24 09:10:30;;;;;;;;;;;;;;;24.08;31.97;96264.41;4994752;28;869;-74
2023/01/24 09:12:55;;;;;;;;;;;;;;;24.07;31.79;96260.06;5016677;28;1461;-71
2023/01/24 09:15:20;;;;;;;;;;;;;;;24.08;31.92;96261.72;4994504;28;952;-72
2023/01/24 09:17:46;;;;;;;;;;;;;;;24.08;31.73;96259.06;4994391;28;802;-72
2023/01/24 09:20:11;;;;;;;;;;;;;;;24.09;31.70;96255.34;4994515;28;953;-73
2023/01/24 09:22:36;;;;;;;;;;;;;;;24.08;31.70;96251.00;4994776;28;969;-73
2023/01/24 09:25:03;;;;;;;;;;;;;;;24.09;31.71;96251.84;4985740;28;1903;-73
2023/01/24 09:27:28;;;;;;;;;;;;;;;24.09;31.89;96252.66;5025862;28;1491;-73
2023/01/24 09:29:54;;;;;;;;;;;;;;;24.09;31.71;96249.16;5025625;28;1265;-72
2023/01/24 09:32:19;;;;;;;;;;;;;;;24.09;31.70;96257.19;5009466;28;1164;-73
2023/01/24 09:34:46;;;;;;;;;;;;;;;24.09;32.04;96254.50;4989595;28;1062;-72
2023/01/24 09:37:13;;;;;;;;;;;;;;;24.10;31.94;96256.97;5021030;28;1370;-73
2023/01/24 09:39:39;;;;;;;;;;;;;;;24.09;31.78;96249.16;4994271;28;875;-73
2023/01/24 09:42:04;;;;;;;;;;;;;;;24.09;31.70;96251.84;4994519;28;888;-73
2023/01/24 09:44:42;;;;;;;;;;;;;;;24.09;31.78;96249.16;4992851;28;1902;-73
2023/01/24 09:47:25;;;;;;;;;;;;;;;24.09;31.86;96249.16;4984784;28;1111;-73
2023/01/24 09:49:55;;;;;;;;;;;;;;;24.09;31.89;96249.16;5025616;28;1204;-73
2023/01/24 09:52:25;;;;;;;;;;;;;;;24.09;31.73;96249.16;4994247;28;927;-71
2023/01/24 09:54:54;;;;;;;;;;;;;;;24.09;31.95;96243.78;4994098;28;821;-74
2023/01/24 09:57:27;;;;;;;;;;;;;;;24.09;31.91;96241.94;5020853;28;1198;-72
2023/01/24 09:59:55;;;;;;;;;;;;;;;24.08;31.85;96248.31;4989074;28;1157;-72
2023/01/24 10:02:21;;;;;;;;;;;;;;;24.08;31.79;96242.97;4993998;28;873;-72
2023/01/24 10:04:47;;;;;;;;;;;;;;;24.09;31.71;96249.16;5025196;28;1902;-73
2023/01/24 10:07:18;;;;;;;;;;;;;;;24.09;31.74;96243.78;5025222;28;1217;-73
2023/01/24 10:09:46;;;;;;;;;;;;;;;24.08;31.88;96236.75;4984216;28;1094;-72
2023/01/24 10:12:44;;;;;;;;;;;;;;;24.08;31.63;96244.78;4992282;28;1176;-72
2023/01/24 10:15:19;;;;;;;;;;;;;;;24.07;31.93;96232.41;4986829;28;1226;-73
2023/01/24 10:17:44;;;;;;;;;;;;;;;24.07;31.82;96235.09;4993681;28;933;-72
2023/01/24 10:20:25;;;;;;;;;;;;;;;24.07;31.65;96221.69;4987912;28;1397;-72
2023/01/24 10:23:01;;;;;;;;;;;;;;;24.07;31.68;96227.88;4990324;28;985;-72
2023/01/24 10:25:32;;;;;;;;;;;;;;;24.08;31.68;96226.88;4993516;28;1963;-72
2023/01/24 10:27:59;;;;;;;;;;;;;;;24.08;31.88;96231.38;4993022;28;955;-72
2023/01/24 10:30:30;;;;;;;;;;;;;;;24.07;31.78;96219.84;4992069;28;1343;-72
2023/01/24 10:33:00;;;;;;;;;;;;;;;24.06;31.92;96218.19;4982627;28;1294;-72
2023/01/24 10:35:28;;;;;;;;;;;;;;;24.09;31.78;96219.66;4993377;28;951;-72
2023/01/24 10:37:57;;;;;;;;;;;;;;;24.09;31.77;96222.34;4993314;28;876;-72
2023/01/24 10:40:26;;;;;;;;;;;;;;;24.08;31.68;96212.63;4993436;28;936;-72
2023/01/24 10:42:52;;;;;;;;;;;;;;;24.09;31.74;96216.97;4988926;28;1071;-72
2023/01/24 10:45:36;;;;;;;;;;;;;;;24.09;31.72;96216.97;4988281;28;1902;-72
2023/01/24 10:48:01;;;;;;;;;;;;;;;24.08;31.72;96212.63;4993567;28;863;-73
2023/01/24 10:50:41;;;;;;;;;;;;;;;24.07;31.59;96203.75;4993455;28;919;-72
2023/01/24 10:53:14;;;;;;;;;;;;;;;24.07;31.95;96208.28;4993539;28;923;-73
2023/01/24 10:55:39;;;;;;;;;;;;;;;24.07;31.78;96203.75;4982297;28;1192;-73
2023/01/24 10:58:27;;;;;;;;;;;;;;;24.08;31.61;96207.25;4993535;28;912;-73
2023/01/24 11:00:59;;;;;;;;;;;;;;;24.08;31.66;96204.56;5008311;28;1172;-72
2023/01/24 11:03:29;;;;;;;;;;;;;;;24.07;31.70;96202.94;5024757;28;1273;-72
2023/01/24 11:05:56;;;;;;;;;;;;;;;24.07;31.77;96202.94;4985626;28;1906;-72
2023/01/24 11:08:35;;;;;;;;;;;;;;;24.08;31.81;96193.84;4991758;28;1198;-72
2023/01/24 11:11:01;;;;;;;;;;;;;;;24.07;31.72;96201.06;4993500;28;790;-72
2023/01/24 11:13:29;;;;;;;;;;;;;;;24.06;31.67;96204.78;4993067;28;825;-73
2023/01/24 11:16:00;;;;;;;;;;;;;;;24.07;31.71;96202.94;4993240;28;841;-73
2023/01/24 11:18:29;;;;;;;;;;;;;;;24.08;32.01;96199.22;4983520;28;1079;-73
2023/01/24 11:21:05;;;;;;;;;;;;;;;24.08;31.69;96196.53;5024599;28;1399;-73
2023/01/24 11:23:30;;;;;;;;;;;;;;;24.08;31.69;96193.84;5024749;28;1199;-73
2023/01/24 11:25:57;;;;;;;;;;;;;;;24.07;31.72;96192.22;4993092;28;1961;-73
2023/01/24 11:28:26;;;;;;;;;;;;;;;24.06;31.80;96190.56;5019680;28;1329;-72
2023/01/24 11:30:52;;;;;;;;;;;;;;;24.05;31.73;96189.75;4988005;28;1257;-72
2023/01/24 11:33:23;;;;;;;;;;;;;;;24.06;31.88;96179.84;4992981;28;849;-72
2023/01/24 11:35:54;;;;;;;;;;;;;;;24.07;31.90;96178.81;4991890;28;1298;-72
2023/01/24 11:38:31;;;;;;;;;;;;;;;24.06;31.71;96177.16;5024126;28;1183;-72
2023/01/24 11:40:56;;;;;;;;;;;;;;;24.05;31.90;96178.16;4985198;28;1163;-72
2023/01/24 11:43:24;;;;;;;;;;;;;;;24.06;31.91;96179.84;4996354;28;798;-72
2023/01/24 11:46:08;;;;;;;;;;;;;;;24.08;31.65;96175.09;4994993;28;1951;-72
2023/01/24 11:48:45;;;;;;;;;;;;;;;24.05;31.51;96168.31;4996735;28;866;-73
2023/01/24 11:51:14;;;;;;;;;;;;;;;24.06;31.67;96166.44;4991851;28;1100;-73
2023/01/24 11:54:17;;;;;;;;;;;;;;;24.04;31.58;96171.16;4991459;28;1083;-72
2023/01/24 11:57:17;;;;;;;;;;;;;;;24.06;31.97;96169.13;4974701;28;1335;-73
2023/01/24 11:59:48;;;;;;;;;;;;;;;24.05;31.58;96162.09;4955359;29;1486;-72
2023/01/24 12:02:36;;;;;;;;;;;;;;;24.05;31.98;96162.94;4982423;28;960;-72
2023/01/24 12:05:20;;;;;;;;;;;;;;;24.05;31.74;96159.41;4991575;28;1962;-74
2023/01/24 12:08:17;;;;;;;;;;;;;;;24.05;31.75;96159.41;4995982;28;817;-72
2023/01/24 12:10:42;;;;;;;;;;;;;;;24.04;31.90;96165.81;4983985;28;1501;-72
2023/01/24 12:13:26;;;;;;;;;;;;;;;24.05;31.73;96162.09;4995735;28;800;-72
2023/01/24 12:15:54;;;;;;;;;;;;;;;24.02;31.85;96166.84;4988815;28;1307;-72
2023/01/24 12:18:20;;;;;;;;;;;;;;;24.04;31.81;96176.53;4995754;28;892;-73
2023/01/24 12:20:51;;;;;;;;;;;;;;;24.05;31.92;96170.13;4995766;28;872;-73
2023/01/24 12:23:16;;;;;;;;;;;;;;;24.05;31.71;96175.50;4995749;28;939;-73
2023/01/24 12:25:44;;;;;;;;;;;;;;;24.05;31.85;96176.34;4984671;28;1902;-72
2023/01/24 12:28:13;;;;;;;;;;;;;;;24.05;31.71;96172.81;4995306;28;1024;-73
2023/01/24 12:30:43;;;;;;;;;;;;;;;24.05;31.75;96178.16;5026790;28;1376;-72
2023/01/24 12:33:23;;;;;;;;;;;;;;;24.05;31.57;96172.81;4995998;28;908;-72
2023/01/24 12:35:54;;;;;;;;;;;;;;;24.04;31.63;96171.97;4995621;28;829;-73
2023/01/24 12:38:22;;;;;;;;;;;;;;;24.02;31.68;96177.56;4986091;28;1068;-73
2023/01/24 12:40:55;;;;;;;;;;;;;;;24.02;31.67;96169.53;4994044;28;1390;-73
2023/01/24 12:43:34;;;;;;;;;;;;;;;24.03;31.85;96173.03;5010302;28;1176;-73
2023/01/24 12:46:04;;;;;;;;;;;;;;;24.00;31.90;96171.56;4995598;28;1910;-72
2023/01/24 12:48:32;;;;;;;;;;;;;;;24.02;31.62;96172.19;5001404;28;1223;-71
2023/01/24 12:51:15;;;;;;;;;;;;;;;24.02;31.65;96177.56;4994894;28;1103;-73
2023/01/24 12:53:48;;;;;;;;;;;;;;;24.02;31.81;96172.19;4996780;28;888;-73
2023/01/24 12:56:16;;;;;;;;;;;;;;;24.01;31.80;96177.75;5027010;28;1298;-72
2023/01/24 12:58:43;;;;;;;;;;;;;;;24.00;31.82;96176.94;5027189;28;1266;-72
2023/01/24 13:01:11;;;;;;;;;;;;;;;24.00;31.69;96174.25;5017335;28;1196;-73
2023/01/24 13:04:00;;;;;;;;;;;;;;;24.02;31.62;96172.19;4995155;28;782;-73
2023/01/24 13:06:33;;;;;;;;;;;;;;;24.04;31.73;96173.84;5004643;28;1894;-73
2023/01/24 13:09:22;;;;;;;;;;;;;;;24.04;31.81;96176.53;4995100;28;931;-72
2023/01/24 13:11:49;;;;;;;;;;;;;;;24.01;31.69;96169.69;4986062;28;1155;-73
2023/01/24 13:14:20;;;;;;;;;;;;;;;24.02;31.72;96172.19;4994900;28;918;-71
2023/01/24 13:16:52;;;;;;;;;;;;;;;24.02;31.83;96171.34;4993594;28;1198;-73
2023/01/24 13:19:37;;;;;;;;;;;;;;;24.01;31.75;96167.84;4995265;28;860;-71
2023/01/24 13:22:21;;;;;;;;;;;;;;;24.01;31.63;96173.22;5006152;28;1293;-72
2023/01/24 13:25:01;;;;;;;;;;;;;;;24.00;31.67;96174.25;4994921;28;1906;-72
2023/01/24 13:27:45;;;;;;;;;;;;;;;24.00;31.66;96176.94;4994973;28;802;-73
2023/01/24 13:30:29;;;;;;;;;;;;;;;23.98;31.88;96176.28;4994338;28;1313;-73
2023/01/24 13:32:56;;;;;;;;;;;;;;;23.98;31.79;96176.28;4993507;28;900;-72
2023/01/24 13:35:23;;;;;;;;;;;;;;;24.00;31.56;96176.94;5020574;28;1218;-72
2023/01/24 13:37:50;;;;;;;;;;;;;;;24.01;31.65;96183.09;5027394;28;1328;-72
2023/01/24 13:40:15;;;;;;;;;;;;;;;24.01;31.75;96186.63;4995501;28;841;-73
2023/01/24 13:42:41;;;;;;;;;;;;;;;24.00;31.74;96179.59;4993976;28;1331;-73